createdAt,value
2018-04-29T00:01:02.667Z,1012.49
2018-04-29T00:02:12.426Z,1012.45
2018-04-29T00:03:21.921Z,1012.46
2018-04-29T00:04:31.465Z,1012.46
2018-04-29T00:05:41.227Z,1012.47
2018-04-29T00:06:50.721Z,1012.48
2018-04-29T00:07:59.943Z,1012.46
2018-04-29T00:09:08.894Z,1012.47
2018-04-29T00:10:18.394Z,1012.47
2018-04-29T00:11:28.160Z,1012.48
2018-04-29T00:12:37.660Z,1012.47
2018-04-29T00:13:46.883Z,1012.44
2018-04-29T00:14:56.640Z,1012.42
2018-04-29T00:16:05.872Z,1012.48
2018-04-29T00:17:15.897Z,1012.45
2018-04-29T00:18:25.409Z,1012.49
2018-04-29T00:19:35.179Z,1012.49
2018-04-29T00:20:44.415Z,1012.49
2018-04-29T00:21:53.940Z,1012.49
2018-04-29T00:23:03.703Z,1012.53
2018-04-29T00:24:12.928Z,1012.52
2018-04-29T00:25:22.159Z,1012.56
2018-04-29T00:26:31.648Z,1012.54
2018-04-29T00:27:41.411Z,1012.57
2018-04-29T00:28:50.636Z,1012.61
2018-04-29T00:30:00.134Z,1012.59
2018-04-29T00:31:09.628Z,1012.54
2018-04-29T00:32:18.854Z,1012.51
2018-04-29T00:33:28.617Z,1012.49
2018-04-29T00:34:37.577Z,1012.49
2018-04-29T00:35:47.078Z,1012.5
2018-04-29T00:36:56.306Z,1012.47
2018-04-29T00:38:05.530Z,1012.44
2018-04-29T00:39:15.296Z,1012.41
2018-04-29T00:40:24.253Z,1012.4
2018-04-29T00:41:34.013Z,1012.41
2018-04-29T00:42:43.245Z,1012.37
2018-04-29T00:43:52.737Z,1012.39
2018-04-29T00:45:02.504Z,1012.37
2018-04-29T00:46:11.998Z,1012.4
2018-04-29T00:47:21.500Z,1012.42
2018-04-29T00:48:30.995Z,1012.45
2018-04-29T00:49:40.485Z,1012.44
2018-04-29T00:50:49.976Z,1012.52
2018-04-29T00:51:59.520Z,1012.53
2018-04-29T00:53:08.751Z,1012.56
2018-04-29T00:54:19.090Z,1012.56
2018-04-29T00:55:28.861Z,1012.51
2018-04-29T00:56:38.089Z,1012.52
2018-04-29T00:57:47.857Z,1012.47
2018-04-29T00:58:57.142Z,1012.52
2018-04-29T01:00:06.805Z,1012.55
2018-04-29T01:01:16.573Z,1012.53
2018-04-29T01:02:26.065Z,1012.57
2018-04-29T01:03:35.289Z,1012.57
2018-04-29T01:04:44.525Z,1012.55
2018-04-29T01:05:54.559Z,1012.53
2018-04-29T01:07:04.821Z,1012.49
2018-04-29T01:08:14.047Z,1012.48
2018-04-29T01:09:23.540Z,1012.52
2018-04-29T01:10:32.768Z,1012.5
2018-04-29T01:11:42.266Z,1012.52
2018-04-29T01:12:51.495Z,1012.54
2018-04-29T01:14:00.995Z,1012.54
2018-04-29T01:15:10.487Z,1012.54
2018-04-29T01:16:19.777Z,1012.54
2018-04-29T01:17:29.538Z,1012.52
2018-04-29T01:18:38.758Z,1012.56
2018-04-29T01:19:47.981Z,1012.54
2018-04-29T01:20:57.473Z,1012.56
2018-04-29T01:22:06.975Z,1012.57
2018-04-29T01:23:16.467Z,1012.52
2018-04-29T01:24:25.426Z,1012.55
2018-04-29T01:25:34.388Z,1012.48
2018-04-29T01:26:44.411Z,1012.5
2018-04-29T01:27:53.642Z,1012.49
2018-04-29T01:29:03.138Z,1012.49
2018-04-29T01:30:12.094Z,1012.53
2018-04-29T01:31:21.321Z,1012.53
2018-04-29T01:32:30.836Z,1012.51
2018-04-29T01:33:40.063Z,1012.55
2018-04-29T01:34:49.826Z,1012.56
2018-04-29T01:35:59.055Z,1012.56
2018-04-29T01:37:08.550Z,1012.55
2018-04-29T01:38:17.782Z,1012.5
2018-04-29T01:39:27.551Z,1012.59
2018-04-29T01:40:36.781Z,1012.6
2018-04-29T01:41:46.274Z,1012.6
2018-04-29T01:42:55.505Z,1012.62
2018-04-29T01:44:04.728Z,1012.61
2018-04-29T01:45:14.500Z,1012.6
2018-04-29T01:46:23.734Z,1012.56
2018-04-29T01:47:32.963Z,1012.64
2018-04-29T01:48:42.462Z,1012.65
2018-04-29T01:49:51.686Z,1012.67
2018-04-29T01:51:00.644Z,1012.68
2018-04-29T01:52:09.871Z,1012.66
2018-04-29T01:53:19.103Z,1012.62
2018-04-29T01:54:28.596Z,1012.56
2018-04-29T01:55:37.826Z,1012.53
2018-04-29T01:56:47.055Z,1012.51
2018-04-29T01:57:56.812Z,1012.51
2018-04-29T01:59:06.036Z,1012.49
2018-04-29T02:00:15.262Z,1012.46
2018-04-29T02:01:24.763Z,1012.43
2018-04-29T02:02:34.795Z,1012.39
2018-04-29T02:03:44.024Z,1012.41
2018-04-29T02:04:53.790Z,1012.4
2018-04-29T02:06:02.485Z,1012.4
2018-04-29T02:07:11.980Z,1012.38
2018-04-29T02:08:21.751Z,1012.4
2018-04-29T02:09:30.713Z,1012.39
2018-04-29T02:10:40.215Z,1012.43
2018-04-29T02:11:49.982Z,1012.46
2018-04-29T02:12:59.738Z,1012.44
2018-04-29T02:14:09.500Z,1012.45
2018-04-29T02:15:19.265Z,1012.43
2018-04-29T02:16:28.500Z,1012.43
2018-04-29T02:17:38.259Z,1012.41
2018-04-29T02:18:47.226Z,1012.37
2018-04-29T02:19:56.732Z,1012.4
2018-04-29T02:21:06.239Z,1012.39
2018-04-29T02:22:15.197Z,1012.48
2018-04-29T02:23:24.154Z,1012.42
2018-04-29T02:24:33.116Z,1012.44
2018-04-29T02:25:43.150Z,1012.42
2018-04-29T02:26:52.642Z,1012.41
2018-04-29T02:28:02.141Z,1012.4
2018-04-29T02:29:11.903Z,1012.46
2018-04-29T02:30:21.667Z,1012.47
2018-04-29T02:31:31.166Z,1012.47
2018-04-29T02:32:40.396Z,1012.44
2018-04-29T02:33:49.897Z,1012.48
2018-04-29T02:34:59.662Z,1012.49
2018-04-29T02:36:09.161Z,1012.54
2018-04-29T02:37:18.931Z,1012.57
2018-04-29T02:38:28.163Z,1012.57
2018-04-29T02:39:37.122Z,1012.57
2018-04-29T02:40:47.162Z,1012.58
2018-04-29T02:41:56.424Z,1012.55
2018-04-29T02:43:06.192Z,1012.54
2018-04-29T02:44:15.422Z,1012.45
2018-04-29T02:45:25.459Z,1012.34
2018-04-29T02:46:34.967Z,1012.36
2018-04-29T02:47:45.016Z,1012.36
2018-04-29T02:48:54.779Z,1012.41
2018-04-29T02:50:04.565Z,1012.39
2018-04-29T02:51:14.072Z,1012.4
2018-04-29T02:52:23.306Z,1012.4
2018-04-29T02:53:33.082Z,1012.43
2018-04-29T02:54:42.383Z,1012.46
2018-04-29T02:55:52.163Z,1012.56
2018-04-29T02:57:01.939Z,1012.54
2018-04-29T02:58:11.713Z,1012.57
2018-04-29T02:59:21.216Z,1012.56
2018-04-29T03:00:30.731Z,1012.57
2018-04-29T03:01:40.231Z,1012.51
2018-04-29T03:02:49.724Z,1012.49
2018-04-29T03:03:59.221Z,1012.5
2018-04-29T03:05:08.723Z,1012.48
2018-04-29T03:06:18.227Z,1012.46
2018-04-29T03:07:27.999Z,1012.39
2018-04-29T03:08:38.042Z,1012.41
2018-04-29T03:09:48.081Z,1012.42
2018-04-29T03:10:56.777Z,1012.42
2018-04-29T03:12:06.543Z,1012.41
2018-04-29T03:13:16.052Z,1012.37
2018-04-29T03:14:25.824Z,1012.28
2018-04-29T03:15:35.053Z,1012.24
2018-04-29T03:16:44.545Z,1012.21
2018-04-29T03:17:53.771Z,1012.21
2018-04-29T03:19:03.794Z,1012.27
2018-04-29T03:20:13.296Z,1012.23
2018-04-29T03:21:23.069Z,1012.27
2018-04-29T03:22:33.107Z,1012.27
2018-04-29T03:23:42.339Z,1012.22
2018-04-29T03:24:52.113Z,1012.21
2018-04-29T03:26:01.337Z,1012.2
2018-04-29T03:27:10.840Z,1012.23
2018-04-29T03:28:20.334Z,1012.26
2018-04-29T03:29:29.841Z,1012.29
2018-04-29T03:30:39.075Z,1012.33
2018-04-29T03:31:49.115Z,1012.27
2018-04-29T03:32:59.161Z,1012.25
2018-04-29T03:34:08.394Z,1012.18
2018-04-29T03:35:17.358Z,1012.12
2018-04-29T03:36:26.875Z,1012.15
2018-04-29T03:37:36.371Z,1012.21
2018-04-29T03:38:45.871Z,1012.24
2018-04-29T03:39:55.097Z,1012.2
2018-04-29T03:41:04.325Z,1012.17
2018-04-29T03:42:13.829Z,1012.09
2018-04-29T03:43:23.325Z,1012.09
2018-04-29T03:44:33.092Z,1012.1
2018-04-29T03:45:42.050Z,1012.1
2018-04-29T03:46:51.013Z,1012.08
2018-04-29T03:48:00.243Z,1012.07
2018-04-29T03:49:10.004Z,1012.12
2018-04-29T03:50:18.961Z,1012.15
2018-04-29T03:51:27.650Z,1012.2
2018-04-29T03:52:36.876Z,1012.18
2018-04-29T03:53:46.634Z,1012.1
2018-04-29T03:54:55.863Z,1012.05
2018-04-29T03:56:05.369Z,1011.95
2018-04-29T03:57:14.872Z,1011.89
2018-04-29T03:58:24.366Z,1011.88
2018-04-29T03:59:33.862Z,1011.85
2018-04-29T04:00:43.357Z,1011.9
2018-04-29T04:01:52.856Z,1012.01
2018-04-29T04:03:02.092Z,1012.09
2018-04-29T04:04:11.585Z,1012.15
2018-04-29T04:05:21.082Z,1012.22
2018-04-29T04:06:30.303Z,1012.24
2018-04-29T04:07:39.535Z,1012.27
2018-04-29T04:08:48.759Z,1012.3
2018-04-29T04:09:58.270Z,1012.34
2018-04-29T04:11:07.488Z,1012.4
2018-04-29T04:12:16.451Z,1012.32
2018-04-29T04:13:25.948Z,1012.32
2018-04-29T04:14:35.706Z,1012.28
2018-04-29T04:15:45.824Z,1012.3
2018-04-29T04:16:54.699Z,1012.32
2018-04-29T04:18:04.194Z,1012.35
2018-04-29T04:19:14.236Z,1012.29
2018-04-29T04:20:24.063Z,1012.26
2018-04-29T04:21:33.558Z,1012.27
2018-04-29T04:22:43.053Z,1012.23
2018-04-29T04:23:52.817Z,1012.23
2018-04-29T04:25:02.581Z,1012.29
2018-04-29T04:26:12.081Z,1012.35
2018-04-29T04:27:21.845Z,1012.39
2018-04-29T04:28:31.341Z,1012.42
2018-04-29T04:29:40.837Z,1012.51
2018-04-29T04:30:50.596Z,1012.54
2018-04-29T04:31:59.553Z,1012.53
2018-04-29T04:33:08.779Z,1012.58
2018-04-29T04:34:18.292Z,1012.54
2018-04-29T04:35:27.250Z,1012.55
2018-04-29T04:36:36.748Z,1012.54
2018-04-29T04:37:45.439Z,1012.53
2018-04-29T04:38:55.196Z,1012.54
2018-04-29T04:40:04.962Z,1012.56
2018-04-29T04:41:15.250Z,1012.53
2018-04-29T04:42:25.298Z,1012.54
2018-04-29T04:43:34.595Z,1012.59
2018-04-29T04:44:43.753Z,1012.66
2018-04-29T04:45:53.248Z,1012.66
2018-04-29T04:47:02.748Z,1012.72
2018-04-29T04:48:12.241Z,1012.75
2018-04-29T04:49:21.474Z,1012.78
2018-04-29T04:50:30.711Z,1012.75
2018-04-29T04:51:40.400Z,1012.75
2018-04-29T04:52:49.896Z,1012.72
2018-04-29T04:53:59.112Z,1012.7
2018-04-29T04:55:08.874Z,1012.66
2018-04-29T04:56:18.369Z,1012.58
2018-04-29T04:57:28.210Z,1012.56
2018-04-29T04:58:37.700Z,1012.6
2018-04-29T04:59:46.392Z,1012.65
2018-04-29T05:00:55.348Z,1012.69
2018-04-29T05:02:04.577Z,1012.69
2018-04-29T05:03:13.807Z,1012.75
2018-04-29T05:04:23.032Z,1012.76
2018-04-29T05:05:32.833Z,1012.82
2018-04-29T05:06:41.793Z,1012.82
2018-04-29T05:07:51.555Z,1012.78
2018-04-29T05:09:01.346Z,1012.72
2018-04-29T05:10:10.844Z,1012.73
2018-04-29T05:11:20.339Z,1012.78
2018-04-29T05:12:29.576Z,1012.78
2018-04-29T05:13:38.817Z,1012.79
2018-04-29T05:14:49.245Z,1012.8
2018-04-29T05:15:59.006Z,1012.78
2018-04-29T05:17:08.764Z,1012.72
2018-04-29T05:18:18.261Z,1012.7
2018-04-29T05:19:27.488Z,1012.66
2018-04-29T05:20:36.445Z,1012.69
2018-04-29T05:21:46.209Z,1012.7
2018-04-29T05:22:55.439Z,1012.73
2018-04-29T05:24:04.398Z,1012.7
2018-04-29T05:25:13.891Z,1012.68
2018-04-29T05:26:23.123Z,1012.61
2018-04-29T05:27:32.348Z,1012.61
2018-04-29T05:28:41.852Z,1012.62
2018-04-29T05:29:51.617Z,1012.62
2018-04-29T05:31:01.113Z,1012.63
2018-04-29T05:32:10.074Z,1012.71
2018-04-29T05:33:19.305Z,1012.71
2018-04-29T05:34:28.798Z,1012.73
2018-04-29T05:35:38.302Z,1012.75
2018-04-29T05:36:47.531Z,1012.73
2018-04-29T05:37:56.758Z,1012.67
2018-04-29T05:39:06.259Z,1012.63
2018-04-29T05:40:15.484Z,1012.66
2018-04-29T05:41:24.715Z,1012.63
2018-04-29T05:42:34.205Z,1012.67
2018-04-29T05:43:43.706Z,1012.65
2018-04-29T05:44:53.736Z,1012.61
2018-04-29T05:46:02.960Z,1012.67
2018-04-29T05:47:12.187Z,1012.69
2018-04-29T05:48:21.682Z,1012.73
2018-04-29T05:49:30.908Z,1012.75
2018-04-29T05:50:40.414Z,1012.75
2018-04-29T05:51:50.180Z,1012.75
2018-04-29T05:52:59.406Z,1012.82
2018-04-29T05:54:09.169Z,1012.85
2018-04-29T05:55:19.205Z,1012.87
2018-04-29T05:56:28.960Z,1012.95
2018-04-29T05:57:38.457Z,1012.95
2018-04-29T05:58:47.958Z,1012.97
2018-04-29T05:59:56.929Z,1012.97
2018-04-29T06:01:06.155Z,1012.94
2018-04-29T06:02:15.113Z,1012.96
2018-04-29T06:03:24.072Z,1013.01
2018-04-29T06:04:33.562Z,1013.04
2018-04-29T06:05:43.327Z,1013.05
2018-04-29T06:06:53.088Z,1013.13
2018-04-29T06:08:02.316Z,1013.07
2018-04-29T06:09:11.275Z,1013.05
2018-04-29T06:10:21.038Z,1013.08
2018-04-29T06:11:30.533Z,1013.09
2018-04-29T06:12:39.228Z,1013.16
2018-04-29T06:13:49.000Z,1013.17
2018-04-29T06:14:59.140Z,1013.17
2018-04-29T06:16:08.900Z,1013.15
2018-04-29T06:17:18.393Z,1013.14
2018-04-29T06:18:27.889Z,1013.08
2018-04-29T06:19:37.388Z,1013.06
2018-04-29T06:20:47.148Z,1013.08
2018-04-29T06:21:56.643Z,1013.04
2018-04-29T06:23:06.406Z,1012.99
2018-04-29T06:24:15.637Z,1012.99
2018-04-29T06:25:25.408Z,1012.91
2018-04-29T06:26:35.172Z,1012.85
2018-04-29T06:27:44.131Z,1012.83
2018-04-29T06:28:53.625Z,1012.9
2018-04-29T06:30:02.847Z,1012.88
2018-04-29T06:31:12.348Z,1012.94
2018-04-29T06:32:22.114Z,1012.95
2018-04-29T06:33:31.610Z,1012.94
2018-04-29T06:34:41.380Z,1012.93
2018-04-29T06:35:51.417Z,1012.97
2018-04-29T06:37:00.908Z,1013.05
2018-04-29T06:38:10.410Z,1013.05
2018-04-29T06:39:19.645Z,1013.1
2018-04-29T06:40:29.147Z,1013.05
2018-04-29T06:41:38.376Z,1013
2018-04-29T06:42:47.068Z,1012.92
2018-04-29T06:43:56.031Z,1012.92
2018-04-29T06:45:05.795Z,1012.91
2018-04-29T06:46:15.020Z,1012.94
2018-04-29T06:47:24.269Z,1012.93
2018-04-29T06:48:33.498Z,1012.92
2018-04-29T06:49:42.728Z,1012.95
2018-04-29T06:50:52.240Z,1012.99
2018-04-29T06:52:01.736Z,1013.01
2018-04-29T06:53:10.967Z,1013.03
2018-04-29T06:54:20.734Z,1013.06
2018-04-29T06:55:29.968Z,1013.08
2018-04-29T06:56:39.771Z,1013.09
2018-04-29T06:57:48.730Z,1013.12
2018-04-29T06:58:58.227Z,1013.11
2018-04-29T07:00:07.457Z,1013.09
2018-04-29T07:01:16.951Z,1013.06
2018-04-29T07:02:26.717Z,1013.06
2018-04-29T07:03:35.948Z,1012.98
2018-04-29T07:04:45.469Z,1012.96
2018-04-29T07:05:55.289Z,1012.94
2018-04-29T07:07:04.517Z,1012.94
2018-04-29T07:08:13.481Z,1012.92
2018-04-29T07:09:23.500Z,1012.89
2018-04-29T07:10:32.457Z,1012.88
2018-04-29T07:11:41.408Z,1012.95
2018-04-29T07:12:50.633Z,1012.9
2018-04-29T07:14:00.128Z,1012.93
2018-04-29T07:15:09.488Z,1012.91
2018-04-29T07:16:18.716Z,1012.88
2018-04-29T07:17:28.477Z,1012.9
2018-04-29T07:18:38.256Z,1012.92
2018-04-29T07:19:48.021Z,1012.93
2018-04-29T07:20:57.826Z,1012.89
2018-04-29T07:22:07.860Z,1012.89
2018-04-29T07:23:17.362Z,1012.91
2018-04-29T07:24:27.392Z,1012.94
2018-04-29T07:25:37.153Z,1012.94
2018-04-29T07:26:46.385Z,1012.94
2018-04-29T07:27:55.887Z,1012.94
2018-04-29T07:29:05.653Z,1012.97
2018-04-29T07:30:14.345Z,1012.91
2018-04-29T07:31:23.841Z,1012.96
2018-04-29T07:32:33.337Z,1012.94
2018-04-29T07:33:42.300Z,1012.94
2018-04-29T07:34:51.809Z,1012.93
2018-04-29T07:36:01.586Z,1012.91
2018-04-29T07:37:11.078Z,1012.91
2018-04-29T07:38:20.585Z,1012.93
2018-04-29T07:39:30.354Z,1012.97
2018-04-29T07:40:39.587Z,1012.9
2018-04-29T07:41:49.631Z,1012.91
2018-04-29T07:42:59.391Z,1012.92
2018-04-29T07:44:09.157Z,1012.88
2018-04-29T07:45:18.656Z,1012.88
2018-04-29T07:46:28.195Z,1012.86
2018-04-29T07:47:38.126Z,1012.9
2018-04-29T07:48:47.083Z,1012.92
2018-04-29T07:49:56.311Z,1012.96
2018-04-29T07:51:05.540Z,1012.93
2018-04-29T07:52:15.155Z,1012.95
2018-04-29T07:53:25.568Z,1012.98
2018-04-29T07:54:35.326Z,1012.95
2018-04-29T07:55:45.095Z,1012.94
2018-04-29T07:56:54.933Z,1012.9
2018-04-29T07:58:04.432Z,1012.92
2018-04-29T07:59:13.662Z,1012.91
2018-04-29T08:00:23.691Z,1012.88
2018-04-29T08:01:33.459Z,1012.93
2018-04-29T08:02:42.414Z,1012.87
2018-04-29T08:03:51.641Z,1012.87
2018-04-29T08:05:00.868Z,1012.93
2018-04-29T08:06:10.369Z,1012.9
2018-04-29T08:07:20.134Z,1012.92
2018-04-29T08:08:28.828Z,1012.85
2018-04-29T08:09:38.323Z,1012.88
2018-04-29T08:10:47.285Z,1012.87
2018-04-29T08:11:56.781Z,1012.91
2018-04-29T08:13:05.740Z,1012.95
2018-04-29T08:14:15.235Z,1012.94
2018-04-29T08:15:24.747Z,1012.94
2018-04-29T08:16:34.480Z,1012.93
2018-04-29T08:17:43.710Z,1012.95
2018-04-29T08:18:52.671Z,1012.98
2018-04-29T08:20:01.905Z,1013.02
2018-04-29T08:21:11.671Z,1013.04
2018-04-29T08:22:20.904Z,1013.01
2018-04-29T08:23:30.675Z,1013.04
2018-04-29T08:24:40.450Z,1013.06
2018-04-29T08:25:49.677Z,1013.06
2018-04-29T08:26:59.444Z,1013.04
2018-04-29T08:28:08.673Z,1013.02
2018-04-29T08:29:17.685Z,1013.02
2018-04-29T08:30:27.182Z,1013
2018-04-29T08:31:37.225Z,1012.94
2018-04-29T08:32:47.270Z,1012.96
2018-04-29T08:33:57.043Z,1012.91
2018-04-29T08:35:06.551Z,1012.94
2018-04-29T08:36:16.356Z,1012.97
2018-04-29T08:37:26.247Z,1012.97
2018-04-29T08:38:35.755Z,1012.99
2018-04-29T08:39:45.520Z,1013
2018-04-29T08:40:55.295Z,1012.97
2018-04-29T08:42:04.793Z,1012.94
2018-04-29T08:43:14.106Z,1012.93
2018-04-29T08:44:24.490Z,1012.96
2018-04-29T08:45:33.729Z,1012.92
2018-04-29T08:46:42.956Z,1012.94
2018-04-29T08:47:52.451Z,1012.83
2018-04-29T08:49:01.951Z,1012.87
2018-04-29T08:50:11.455Z,1012.88
2018-04-29T08:51:21.267Z,1012.82
2018-04-29T08:52:31.288Z,1012.87
2018-04-29T08:53:40.515Z,1012.86
2018-04-29T08:54:50.599Z,1012.84
2018-04-29T08:56:00.705Z,1012.85
2018-04-29T08:57:10.476Z,1012.83
2018-04-29T08:58:19.704Z,1012.8
2018-04-29T08:59:28.938Z,1012.83
2018-04-29T09:00:38.706Z,1012.83
2018-04-29T09:01:48.478Z,1012.81
2018-04-29T09:02:58.248Z,1012.82
2018-04-29T09:04:07.753Z,1012.84
2018-04-29T09:05:17.258Z,1012.79
2018-04-29T09:06:27.021Z,1012.79
2018-04-29T09:07:36.784Z,1012.81
2018-04-29T09:08:46.015Z,1012.76
2018-04-29T09:09:55.251Z,1012.74
2018-04-29T09:11:04.482Z,1012.74
2018-04-29T09:12:14.247Z,1012.71
2018-04-29T09:13:23.481Z,1012.72
2018-04-29T09:14:33.248Z,1012.68
2018-04-29T09:15:43.025Z,1012.66
2018-04-29T09:16:52.288Z,1012.64
2018-04-29T09:18:01.861Z,1012.6
2018-04-29T09:19:11.098Z,1012.62
2018-04-29T09:20:20.604Z,1012.56
2018-04-29T09:21:30.102Z,1012.53
2018-04-29T09:22:39.335Z,1012.55
2018-04-29T09:23:48.822Z,1012.54
2018-04-29T09:24:58.045Z,1012.58
2018-04-29T09:26:07.543Z,1012.56
2018-04-29T09:27:17.062Z,1012.57
2018-04-29T09:28:26.560Z,1012.58
2018-04-29T09:29:36.050Z,1012.6
2018-04-29T09:30:46.088Z,1012.68
2018-04-29T09:31:55.865Z,1012.74
2018-04-29T09:33:05.094Z,1012.75
2018-04-29T09:34:14.589Z,1012.79
2018-04-29T09:35:24.078Z,1012.75
2018-04-29T09:36:33.308Z,1012.68
2018-04-29T09:37:43.072Z,1012.71
2018-04-29T09:38:52.881Z,1012.63
2018-04-29T09:40:02.377Z,1012.63
2018-04-29T09:41:11.881Z,1012.66
2018-04-29T09:42:21.118Z,1012.68
2018-04-29T09:43:30.944Z,1012.63
2018-04-29T09:44:40.904Z,1012.64
2018-04-29T09:45:50.397Z,1012.66
2018-04-29T09:46:59.903Z,1012.64
2018-04-29T09:48:09.132Z,1012.63
2018-04-29T09:49:18.373Z,1012.63
2018-04-29T09:50:27.332Z,1012.68
2018-04-29T09:51:37.091Z,1012.67
2018-04-29T09:52:46.592Z,1012.74
2018-04-29T09:53:56.086Z,1012.8
2018-04-29T09:55:05.314Z,1012.85
2018-04-29T09:56:14.619Z,1012.89
2018-04-29T09:57:23.842Z,1012.97
2018-04-29T09:58:33.607Z,1012.94
2018-04-29T09:59:42.565Z,1012.93
2018-04-29T10:00:52.060Z,1012.87
2018-04-29T10:02:02.346Z,1012.86
2018-04-29T10:03:11.578Z,1012.84
2018-04-29T10:04:20.537Z,1012.87
2018-04-29T10:05:30.031Z,1012.79
2018-04-29T10:06:39.532Z,1012.77
2018-04-29T10:07:49.303Z,1012.76
2018-04-29T10:08:59.066Z,1012.77
2018-04-29T10:10:08.586Z,1012.78
2018-04-29T10:11:17.817Z,1012.77
2018-04-29T10:12:26.769Z,1012.74
2018-04-29T10:13:36.271Z,1012.73
2018-04-29T10:14:45.503Z,1012.74
2018-04-29T10:15:54.991Z,1012.71
2018-04-29T10:17:03.951Z,1012.73
2018-04-29T10:18:13.716Z,1012.66
2018-04-29T10:19:23.212Z,1012.64
2018-04-29T10:20:32.977Z,1012.64
2018-04-29T10:21:42.742Z,1012.61
2018-04-29T10:22:52.244Z,1012.56
2018-04-29T10:24:01.738Z,1012.61
2018-04-29T10:25:10.975Z,1012.61
2018-04-29T10:26:20.213Z,1012.64
2018-04-29T10:27:30.245Z,1012.64
2018-04-29T10:28:39.743Z,1012.65
2018-04-29T10:29:49.512Z,1012.63
2018-04-29T10:30:59.017Z,1012.63
2018-04-29T10:32:08.521Z,1012.6
2018-04-29T10:33:18.057Z,1012.57
2018-04-29T10:34:27.838Z,1012.59
2018-04-29T10:35:37.602Z,1012.57
2018-04-29T10:36:46.827Z,1012.57
2018-04-29T10:37:56.325Z,1012.55
2018-04-29T10:39:05.284Z,1012.49
2018-04-29T10:40:15.050Z,1012.51
2018-04-29T10:41:24.543Z,1012.52
2018-04-29T10:42:34.303Z,1012.52
2018-04-29T10:43:43.530Z,1012.49
2018-04-29T10:44:53.309Z,1012.46
2018-04-29T10:46:02.809Z,1012.49
2018-04-29T10:47:11.502Z,1012.5
2018-04-29T10:48:21.269Z,1012.53
2018-04-29T10:49:30.759Z,1012.51
2018-04-29T10:50:39.986Z,1012.47
2018-04-29T10:51:50.026Z,1012.51
2018-04-29T10:52:58.993Z,1012.46
2018-04-29T10:54:08.230Z,1012.48
2018-04-29T10:55:17.726Z,1012.43
2018-04-29T10:56:27.496Z,1012.45
2018-04-29T10:57:37.341Z,1012.48
2018-04-29T10:58:47.409Z,1012.44
2018-04-29T10:59:57.655Z,1012.38
2018-04-29T11:01:06.888Z,1012.39
2018-04-29T11:02:16.651Z,1012.33
2018-04-29T11:03:25.881Z,1012.35
2018-04-29T11:04:35.406Z,1012.39
2018-04-29T11:05:44.370Z,1012.33
2018-04-29T11:06:53.861Z,1012.36
2018-04-29T11:08:03.360Z,1012.37
2018-04-29T11:09:12.853Z,1012.38
2018-04-29T11:10:22.355Z,1012.38
2018-04-29T11:11:31.857Z,1012.37
2018-04-29T11:12:41.692Z,1012.33
2018-04-29T11:13:51.194Z,1012.34
2018-04-29T11:15:00.423Z,1012.35
2018-04-29T11:16:09.655Z,1012.34
2018-04-29T11:17:19.419Z,1012.37
2018-04-29T11:18:28.916Z,1012.34
2018-04-29T11:19:38.487Z,1012.39
2018-04-29T11:20:48.525Z,1012.39
2018-04-29T11:21:58.292Z,1012.35
2018-04-29T11:23:07.664Z,1012.39
2018-04-29T11:24:17.534Z,1012.35
2018-04-29T11:25:27.028Z,1012.39
2018-04-29T11:26:36.528Z,1012.36
2018-04-29T11:27:46.562Z,1012.38
2018-04-29T11:28:55.795Z,1012.4
2018-04-29T11:30:05.031Z,1012.39
2018-04-29T11:31:14.519Z,1012.42
2018-04-29T11:32:24.021Z,1012.41
2018-04-29T11:33:33.813Z,1012.42
2018-04-29T11:34:43.041Z,1012.37
2018-04-29T11:35:52.537Z,1012.43
2018-04-29T11:37:01.762Z,1012.41
2018-04-29T11:38:10.999Z,1012.43
2018-04-29T11:39:20.493Z,1012.44
2018-04-29T11:40:29.469Z,1012.41
2018-04-29T11:41:39.903Z,1012.44
2018-04-29T11:42:49.670Z,1012.42
2018-04-29T11:43:58.898Z,1012.42
2018-04-29T11:45:08.128Z,1012.4
2018-04-29T11:46:17.907Z,1012.39
2018-04-29T11:47:27.684Z,1012.42
2018-04-29T11:48:36.907Z,1012.46
2018-04-29T11:49:46.939Z,1012.43
2018-04-29T11:50:56.166Z,1012.44
2018-04-29T11:52:05.387Z,1012.38
2018-04-29T11:53:14.888Z,1012.42
2018-04-29T11:54:24.112Z,1012.41
2018-04-29T11:55:33.072Z,1012.4
2018-04-29T11:56:42.304Z,1012.38
2018-04-29T11:57:52.065Z,1012.36
2018-04-29T11:59:01.303Z,1012.36
2018-04-29T12:00:11.073Z,1012.33
2018-04-29T12:01:20.033Z,1012.32
2018-04-29T12:02:29.287Z,1012.33
2018-04-29T12:03:39.655Z,1012.36
2018-04-29T12:04:48.882Z,1012.37
2018-04-29T12:05:57.841Z,1012.33
2018-04-29T12:07:06.806Z,1012.34
2018-04-29T12:08:16.295Z,1012.34
2018-04-29T12:09:26.056Z,1012.33
2018-04-29T12:10:35.285Z,1012.33
2018-04-29T12:11:44.509Z,1012.33
2018-04-29T12:12:53.474Z,1012.38
2018-04-29T12:14:02.975Z,1012.4
2018-04-29T12:15:12.745Z,1012.38
2018-04-29T12:16:22.278Z,1012.49
2018-04-29T12:17:31.670Z,1012.52
2018-04-29T12:18:41.161Z,1012.5
2018-04-29T12:19:50.672Z,1012.52
2018-04-29T12:20:59.633Z,1012.44
2018-04-29T12:22:08.590Z,1012.42
2018-04-29T12:23:18.666Z,1012.33
2018-04-29T12:24:28.202Z,1012.37
2018-04-29T12:25:38.690Z,1012.35
2018-04-29T12:26:47.930Z,1012.36
2018-04-29T12:27:57.426Z,1012.36
2018-04-29T12:29:07.203Z,1012.34
2018-04-29T12:30:16.434Z,1012.27
2018-04-29T12:31:26.203Z,1012.11
2018-04-29T12:32:35.430Z,1012.06
2018-04-29T12:33:44.765Z,1012
2018-04-29T12:34:53.738Z,1011.98
2018-04-29T12:36:03.230Z,1011.95
2018-04-29T12:37:12.726Z,1011.96
2018-04-29T12:38:22.227Z,1011.95
2018-04-29T12:39:31.726Z,1011.97
2018-04-29T12:40:40.956Z,1011.96
2018-04-29T12:41:50.460Z,1012
2018-04-29T12:42:59.690Z,1012.01
2018-04-29T12:44:09.473Z,1012.06
2018-04-29T12:45:19.241Z,1012
2018-04-29T12:46:28.467Z,1011.97
2018-04-29T12:47:38.707Z,1011.99
2018-04-29T12:48:48.481Z,1011.93
2018-04-29T12:49:57.710Z,1011.95
2018-04-29T12:51:06.939Z,1011.97
2018-04-29T12:52:15.986Z,1012.02
2018-04-29T12:53:25.949Z,1011.93
2018-04-29T12:54:35.155Z,1011.91
2018-04-29T12:55:44.378Z,1011.85
2018-04-29T12:56:53.608Z,1011.78
2018-04-29T12:58:02.838Z,1011.79
2018-04-29T12:59:12.332Z,1011.73
2018-04-29T13:00:22.150Z,1011.66
2018-04-29T13:01:32.024Z,1011.65
2018-04-29T13:02:41.864Z,1011.59
2018-04-29T13:03:51.634Z,1011.55
2018-04-29T13:05:01.674Z,1011.51
2018-04-29T13:06:10.642Z,1011.45
2018-04-29T13:07:20.765Z,1011.44
2018-04-29T13:08:31.464Z,1011.41
2018-04-29T13:09:40.424Z,1011.34
2018-04-29T13:10:49.460Z,1011.35
2018-04-29T13:11:58.613Z,1011.28
2018-04-29T13:13:08.107Z,1011.32
2018-04-29T13:14:17.873Z,1011.34
2018-04-29T13:15:27.919Z,1011.32
2018-04-29T13:16:37.422Z,1011.36
2018-04-29T13:17:46.917Z,1011.29
2018-04-29T13:18:55.878Z,1011.24
2018-04-29T13:20:05.533Z,1011.16
2018-04-29T13:21:15.026Z,1011.05
2018-04-29T13:22:24.538Z,1011.01
2018-04-29T13:23:34.039Z,1010.99
2018-04-29T13:24:43.272Z,1010.96
2018-04-29T13:25:53.037Z,1011
2018-04-29T13:27:01.996Z,1010.93
2018-04-29T13:28:12.046Z,1010.95
2018-04-29T13:29:21.269Z,1010.89
2018-04-29T13:30:30.837Z,1010.93
2018-04-29T13:31:40.610Z,1010.95
2018-04-29T13:32:49.843Z,1010.99
2018-04-29T13:33:59.624Z,1011.09
2018-04-29T13:35:08.585Z,1011.12
2018-04-29T13:36:18.084Z,1011.06
2018-04-29T13:37:26.775Z,1011.06
2018-04-29T13:38:36.266Z,1010.97
2018-04-29T13:39:46.030Z,1010.99
2018-04-29T13:40:55.522Z,1011
2018-04-29T13:42:04.579Z,1011.04
2018-04-29T13:43:14.347Z,1010.96
2018-04-29T13:44:23.579Z,1010.87
2018-04-29T13:45:32.536Z,1010.85
2018-04-29T13:46:42.044Z,1010.81
2018-04-29T13:47:51.816Z,1010.78
2018-04-29T13:49:01.046Z,1010.78
2018-04-29T13:50:10.812Z,1010.74
2018-04-29T13:51:20.038Z,1010.74
2018-04-29T13:52:29.542Z,1010.74
2018-04-29T13:53:39.612Z,1010.7
2018-04-29T13:54:49.377Z,1010.68
2018-04-29T13:55:59.150Z,1010.74
2018-04-29T13:57:08.461Z,1010.74
2018-04-29T13:58:17.963Z,1010.73
2018-04-29T13:59:27.466Z,1010.7
2018-04-29T14:00:37.229Z,1010.7
2018-04-29T14:01:46.785Z,1010.73
2018-04-29T14:02:56.719Z,1010.77
2018-04-29T14:04:06.485Z,1010.79